sensor_id;sensor_type;location;lat;lon;timestamp;temperature;humidity
13569;DHT22;6856;51.460;7.158;2024-02-23T00:00:31;9.70;61.80
13569;DHT22;6856;51.460;7.158;2024-02-23T00:03:06;9.70;62.00
13569;DHT22;6856;51.460;7.158;2024-02-23T00:05:42;9.70;62.20
13569;DHT22;6856;51.460;7.158;2024-02-23T00:08:16;9.60;62.30
13569;DHT22;6856;51.460;7.158;2024-02-23T00:10:52;9.50;62.30
13569;DHT22;6856;51.460;7.158;2024-02-23T00:13:26;9.50;62.30
13569;DHT22;6856;51.460;7.158;2024-02-23T00:16:00;9.50;62.50
13569;DHT22;6856;51.460;7.158;2024-02-23T00:18:34;9.40;62.40
13569;DHT22;6856;51.460;7.158;2024-02-23T00:21:08;9.40;62.60
13569;DHT22;6856;51.460;7.158;2024-02-23T00:23:41;9.40;62.60
13569;DHT22;6856;51.460;7.158;2024-02-23T00:26:17;9.40;62.40
13569;DHT22;6856;51.460;7.158;2024-02-23T00:28:52;9.40;62.60
13569;DHT22;6856;51.460;7.158;2024-02-23T00:31:26;9.30;62.40
13569;DHT22;6856;51.460;7.158;2024-02-23T00:33:59;9.30;62.50
13569;DHT22;6856;51.460;7.158;2024-02-23T00:36:33;9.20;62.50
13569;DHT22;6856;51.460;7.158;2024-02-23T00:39:07;9.20;62.70
13569;DHT22;6856;51.460;7.158;2024-02-23T00:41:43;9.20;63.00
13569;DHT22;6856;51.460;7.158;2024-02-23T00:44:17;9.10;63.00
13569;DHT22;6856;51.460;7.158;2024-02-23T00:46:51;9.10;63.20
13569;DHT22;6856;51.460;7.158;2024-02-23T00:49:23;9.30;63.20
13569;DHT22;6856;51.460;7.158;2024-02-23T00:51:58;9.10;63.10
13569;DHT22;6856;51.460;7.158;2024-02-23T00:54:32;9.10;63.20
13569;DHT22;6856;51.460;7.158;2024-02-23T00:57:08;9.30;63.20
13569;DHT22;6856;51.460;7.158;2024-02-23T00:59:43;9.30;63.10
13569;DHT22;6856;51.460;7.158;2024-02-23T01:02:17;9.00;63.10
13569;DHT22;6856;51.460;7.158;2024-02-23T01:04:51;9.00;63.10
13569;DHT22;6856;51.460;7.158;2024-02-23T01:07:28;9.00;63.10
13569;DHT22;6856;51.460;7.158;2024-02-23T01:10:05;9.00;63.00
13569;DHT22;6856;51.460;7.158;2024-02-23T01:12:43;9.00;63.20
13569;DHT22;6856;51.460;7.158;2024-02-23T01:15:17;9.00;63.00
13569;DHT22;6856;51.460;7.158;2024-02-23T01:17:51;9.00;63.00
13569;DHT22;6856;51.460;7.158;2024-02-23T01:20:25;9.00;62.90
13569;DHT22;6856;51.460;7.158;2024-02-23T01:22:59;8.90;62.90
13569;DHT22;6856;51.460;7.158;2024-02-23T01:25:33;9.20;63.10
13569;DHT22;6856;51.460;7.158;2024-02-23T01:28:10;8.90;62.80
13569;DHT22;6856;51.460;7.158;2024-02-23T01:30:44;8.90;62.80
13569;DHT22;6856;51.460;7.158;2024-02-23T01:33:18;8.90;62.70
13569;DHT22;6856;51.460;7.158;2024-02-23T01:35:55;9.00;62.80
13569;DHT22;6856;51.460;7.158;2024-02-23T01:38:30;8.90;62.50
13569;DHT22;6856;51.460;7.158;2024-02-23T01:41:05;8.90;62.50
13569;DHT22;6856;51.460;7.158;2024-02-23T01:43:40;8.90;62.30
13569;DHT22;6856;51.460;7.158;2024-02-23T01:46:14;8.80;62.40
13569;DHT22;6856;51.460;7.158;2024-02-23T01:48:50;8.80;62.70
13569;DHT22;6856;51.460;7.158;2024-02-23T01:51:25;8.80;62.70
13569;DHT22;6856;51.460;7.158;2024-02-23T01:53:59;8.80;62.70
13569;DHT22;6856;51.460;7.158;2024-02-23T01:56:33;9.00;63.00
13569;DHT22;6856;51.460;7.158;2024-02-23T01:59:10;8.90;62.90
13569;DHT22;6856;51.460;7.158;2024-02-23T02:01:46;9.10;63.20
13569;DHT22;6856;51.460;7.158;2024-02-23T02:04:21;8.90;62.80
13569;DHT22;6856;51.460;7.158;2024-02-23T02:06:55;8.90;62.80
13569;DHT22;6856;51.460;7.158;2024-02-23T02:09:31;9.10;62.90
13569;DHT22;6856;51.460;7.158;2024-02-23T02:12:05;8.90;62.70
13569;DHT22;6856;51.460;7.158;2024-02-23T02:14:41;8.90;62.60
13569;DHT22;6856;51.460;7.158;2024-02-23T02:17:14;8.90;62.50
13569;DHT22;6856;51.460;7.158;2024-02-23T02:19:48;8.90;62.50
13569;DHT22;6856;51.460;7.158;2024-02-23T02:22:23;9.20;62.00
13569;DHT22;6856;51.460;7.158;2024-02-23T02:24:57;8.90;62.40
13569;DHT22;6856;51.460;7.158;2024-02-23T02:27:31;8.90;62.30
13569;DHT22;6856;51.460;7.158;2024-02-23T02:30:09;8.90;62.40
13569;DHT22;6856;51.460;7.158;2024-02-23T02:32:43;8.90;62.40
13569;DHT22;6856;51.460;7.158;2024-02-23T02:35:19;8.90;62.40
13569;DHT22;6856;51.460;7.158;2024-02-23T02:37:53;9.10;62.50
13569;DHT22;6856;51.460;7.158;2024-02-23T02:40:27;8.90;62.10
13569;DHT22;6856;51.460;7.158;2024-02-23T02:43:01;8.90;62.10
13569;DHT22;6856;51.460;7.158;2024-02-23T02:45:37;9.20;62.30
13569;DHT22;6856;51.460;7.158;2024-02-23T02:48:12;8.90;62.20
13569;DHT22;6856;51.460;7.158;2024-02-23T02:50:45;8.90;62.10
13569;DHT22;6856;51.460;7.158;2024-02-23T02:53:23;8.90;62.00
13569;DHT22;6856;51.460;7.158;2024-02-23T02:55:56;8.90;62.00
13569;DHT22;6856;51.460;7.158;2024-02-23T02:58:31;8.90;61.90
13569;DHT22;6856;51.460;7.158;2024-02-23T03:01:06;9.10;62.10
13569;DHT22;6856;51.460;7.158;2024-02-23T03:03:40;8.90;61.90
13569;DHT22;6856;51.460;7.158;2024-02-23T03:06:14;8.90;61.90
13569;DHT22;6856;51.460;7.158;2024-02-23T03:08:50;8.80;62.00
13569;DHT22;6856;51.460;7.158;2024-02-23T03:11:24;9.20;62.10
13569;DHT22;6856;51.460;7.158;2024-02-23T03:13:58;8.80;61.80
13569;DHT22;6856;51.460;7.158;2024-02-23T03:16:33;9.00;62.00
13569;DHT22;6856;51.460;7.158;2024-02-23T03:19:08;9.00;61.90
13569;DHT22;6856;51.460;7.158;2024-02-23T03:21:44;8.80;61.70
13569;DHT22;6856;51.460;7.158;2024-02-23T03:24:17;8.80;61.70
13569;DHT22;6856;51.460;7.158;2024-02-23T03:26:51;8.80;61.60
13569;DHT22;6856;51.460;7.158;2024-02-23T03:29:26;8.90;61.70
13569;DHT22;6856;51.460;7.158;2024-02-23T03:32:05;9.10;61.90
13569;DHT22;6856;51.460;7.158;2024-02-23T03:34:39;8.80;61.80
13569;DHT22;6856;51.460;7.158;2024-02-23T03:37:13;8.70;61.80
13569;DHT22;6856;51.460;7.158;2024-02-23T03:39:47;8.80;61.80
13569;DHT22;6856;51.460;7.158;2024-02-23T03:42:22;8.70;61.70
13569;DHT22;6856;51.460;7.158;2024-02-23T03:44:56;8.70;62.50
13569;DHT22;6856;51.460;7.158;2024-02-23T03:47:32;8.70;61.80
13569;DHT22;6856;51.460;7.158;2024-02-23T03:50:07;8.70;61.60
13569;DHT22;6856;51.460;7.158;2024-02-23T03:52:41;8.70;61.80
13569;DHT22;6856;51.460;7.158;2024-02-23T03:55:15;8.70;61.60
13569;DHT22;6856;51.460;7.158;2024-02-23T03:57:50;8.70;61.60
13569;DHT22;6856;51.460;7.158;2024-02-23T04:00:25;8.70;61.60
13569;DHT22;6856;51.460;7.158;2024-02-23T04:03:00;8.70;61.50
13569;DHT22;6856;51.460;7.158;2024-02-23T04:05:34;8.70;61.60
13569;DHT22;6856;51.460;7.158;2024-02-23T04:08:08;9.00;61.80
13569;DHT22;6856;51.460;7.158;2024-02-23T04:10:42;8.80;61.70
13569;DHT22;6856;51.460;7.158;2024-02-23T04:13:17;8.70;61.60
13569;DHT22;6856;51.460;7.158;2024-02-23T04:15:52;8.70;61.60
13569;DHT22;6856;51.460;7.158;2024-02-23T04:18:27;8.90;61.60
13569;DHT22;6856;51.460;7.158;2024-02-23T04:21:02;8.70;61.30
13569;DHT22;6856;51.460;7.158;2024-02-23T04:23:37;8.70;61.50
13569;DHT22;6856;51.460;7.158;2024-02-23T04:26:11;8.70;61.30
13569;DHT22;6856;51.460;7.158;2024-02-23T04:28:45;8.70;62.10
13569;DHT22;6856;51.460;7.158;2024-02-23T04:31:19;8.80;61.30
13569;DHT22;6856;51.460;7.158;2024-02-23T04:33:54;8.70;61.20
13569;DHT22;6856;51.460;7.158;2024-02-23T04:36:28;9.00;61.30
13569;DHT22;6856;51.460;7.158;2024-02-23T04:39:03;8.70;61.20
13569;DHT22;6856;51.460;7.158;2024-02-23T04:41:38;8.70;61.10
13569;DHT22;6856;51.460;7.158;2024-02-23T04:44:12;8.70;61.00
13569;DHT22;6856;51.460;7.158;2024-02-23T04:46:46;8.70;61.10
13569;DHT22;6856;51.460;7.158;2024-02-23T04:49:22;8.70;60.90
13569;DHT22;6856;51.460;7.158;2024-02-23T04:51:55;8.70;60.90
13569;DHT22;6856;51.460;7.158;2024-02-23T04:54:29;8.70;60.90
13569;DHT22;6856;51.460;7.158;2024-02-23T04:57:03;8.80;60.90
13569;DHT22;6856;51.460;7.158;2024-02-23T04:59:37;8.70;61.00
13569;DHT22;6856;51.460;7.158;2024-02-23T05:02:12;8.70;60.90
13569;DHT22;6856;51.460;7.158;2024-02-23T05:04:48;8.70;60.80
13569;DHT22;6856;51.460;7.158;2024-02-23T05:07:22;9.00;61.00
13569;DHT22;6856;51.460;7.158;2024-02-23T05:09:57;8.80;60.80
13569;DHT22;6856;51.460;7.158;2024-02-23T05:12:31;9.00;61.00
13569;DHT22;6856;51.460;7.158;2024-02-23T05:15:05;8.90;60.80
13569;DHT22;6856;51.460;7.158;2024-02-23T05:17:40;8.80;61.00
13569;DHT22;6856;51.460;7.158;2024-02-23T05:20:15;8.90;60.60
13569;DHT22;6856;51.460;7.158;2024-02-23T05:22:49;8.80;60.50
13569;DHT22;6856;51.460;7.158;2024-02-23T05:25:23;8.80;60.50
13569;DHT22;6856;51.460;7.158;2024-02-23T05:27:58;8.90;60.50
13569;DHT22;6856;51.460;7.158;2024-02-23T05:30:32;8.80;60.50
13569;DHT22;6856;51.460;7.158;2024-02-23T05:33:07;8.80;60.50
13569;DHT22;6856;51.460;7.158;2024-02-23T05:35:43;8.80;60.40
13569;DHT22;6856;51.460;7.158;2024-02-23T05:38:17;8.80;60.30
13569;DHT22;6856;51.460;7.158;2024-02-23T05:40:50;8.80;60.30
13569;DHT22;6856;51.460;7.158;2024-02-23T05:43:24;8.80;60.30
13569;DHT22;6856;51.460;7.158;2024-02-23T05:45:59;8.70;60.30
13569;DHT22;6856;51.460;7.158;2024-02-23T05:48:33;8.80;60.30
13569;DHT22;6856;51.460;7.158;2024-02-23T05:51:08;8.70;60.20
13569;DHT22;6856;51.460;7.158;2024-02-23T05:53:42;8.80;60.10
13569;DHT22;6856;51.460;7.158;2024-02-23T05:56:17;8.80;60.80
13569;DHT22;6856;51.460;7.158;2024-02-23T05:58:52;8.80;60.20
13569;DHT22;6856;51.460;7.158;2024-02-23T06:01:27;8.80;60.10
13569;DHT22;6856;51.460;7.158;2024-02-23T06:04:01;8.70;59.90
13569;DHT22;6856;51.460;7.158;2024-02-23T06:06:36;8.70;59.90
13569;DHT22;6856;51.460;7.158;2024-02-23T06:09:11;8.70;59.80
13569;DHT22;6856;51.460;7.158;2024-02-23T06:11:47;8.70;59.80
13569;DHT22;6856;51.460;7.158;2024-02-23T06:14:21;8.70;59.70
13569;DHT22;6856;51.460;7.158;2024-02-23T06:16:56;9.00;59.90
13569;DHT22;6856;51.460;7.158;2024-02-23T06:19:30;8.70;59.80
13569;DHT22;6856;51.460;7.158;2024-02-23T06:22:05;8.60;59.70
13569;DHT22;6856;51.460;7.158;2024-02-23T06:24:43;8.60;59.70
13569;DHT22;6856;51.460;7.158;2024-02-23T06:27:17;8.80;59.80
13569;DHT22;6856;51.460;7.158;2024-02-23T06:29:51;8.60;59.70
13569;DHT22;6856;51.460;7.158;2024-02-23T06:32:25;8.60;59.80
13569;DHT22;6856;51.460;7.158;2024-02-23T06:35:02;8.60;59.80
13569;DHT22;6856;51.460;7.158;2024-02-23T06:37:40;8.60;59.70
13569;DHT22;6856;51.460;7.158;2024-02-23T06:40:14;8.60;59.50
13569;DHT22;6856;51.460;7.158;2024-02-23T06:42:48;8.60;59.70
13569;DHT22;6856;51.460;7.158;2024-02-23T06:45:22;8.80;59.50
13569;DHT22;6856;51.460;7.158;2024-02-23T06:47:57;8.50;59.50
13569;DHT22;6856;51.460;7.158;2024-02-23T06:50:32;8.60;59.50
13569;DHT22;6856;51.460;7.158;2024-02-23T06:53:07;8.90;59.50
13569;DHT22;6856;51.460;7.158;2024-02-23T06:55:42;8.60;59.50
13569;DHT22;6856;51.460;7.158;2024-02-23T06:58:15;8.60;59.60
13569;DHT22;6856;51.460;7.158;2024-02-23T07:00:50;8.60;59.50
13569;DHT22;6856;51.460;7.158;2024-02-23T07:03:25;8.60;59.50
13569;DHT22;6856;51.460;7.158;2024-02-23T07:06:00;8.60;59.50
13569;DHT22;6856;51.460;7.158;2024-02-23T07:08:37;8.60;59.50
13569;DHT22;6856;51.460;7.158;2024-02-23T07:11:12;8.60;59.50
13569;DHT22;6856;51.460;7.158;2024-02-23T07:13:46;8.60;59.40
13569;DHT22;6856;51.460;7.158;2024-02-23T07:16:22;8.60;59.40
13569;DHT22;6856;51.460;7.158;2024-02-23T07:18:55;8.60;59.50
13569;DHT22;6856;51.460;7.158;2024-02-23T07:21:32;8.60;59.60
13569;DHT22;6856;51.460;7.158;2024-02-23T07:24:08;8.60;59.40
13569;DHT22;6856;51.460;7.158;2024-02-23T07:26:42;8.60;59.40
13569;DHT22;6856;51.460;7.158;2024-02-23T07:29:15;8.20;59.30
13569;DHT22;6856;51.460;7.158;2024-02-23T07:31:50;8.60;59.60
13569;DHT22;6856;51.460;7.158;2024-02-23T07:34:24;8.80;59.70
13569;DHT22;6856;51.460;7.158;2024-02-23T07:36:58;8.70;59.60
13569;DHT22;6856;51.460;7.158;2024-02-23T07:39:34;8.70;59.50
13569;DHT22;6856;51.460;7.158;2024-02-23T07:42:08;8.70;59.40
13569;DHT22;6856;51.460;7.158;2024-02-23T07:44:43;8.70;59.60
13569;DHT22;6856;51.460;7.158;2024-02-23T07:47:17;8.80;59.60
13569;DHT22;6856;51.460;7.158;2024-02-23T07:49:50;8.70;59.70
13569;DHT22;6856;51.460;7.158;2024-02-23T07:52:24;9.00;59.60
13569;DHT22;6856;51.460;7.158;2024-02-23T07:55:01;8.90;59.70
13569;DHT22;6856;51.460;7.158;2024-02-23T07:57:37;8.90;59.60
13569;DHT22;6856;51.460;7.158;2024-02-23T08:00:13;8.90;59.60
13569;DHT22;6856;51.460;7.158;2024-02-23T08:02:48;8.90;59.60
13569;DHT22;6856;51.460;7.158;2024-02-23T08:05:21;8.90;59.50
13569;DHT22;6856;51.460;7.158;2024-02-23T08:07:56;8.90;59.50
13569;DHT22;6856;51.460;7.158;2024-02-23T08:10:35;9.00;59.40
13569;DHT22;6856;51.460;7.158;2024-02-23T08:13:10;9.00;59.50
13569;DHT22;6856;51.460;7.158;2024-02-23T08:15:44;9.00;59.60
13569;DHT22;6856;51.460;7.158;2024-02-23T08:18:20;9.00;59.40
13569;DHT22;6856;51.460;7.158;2024-02-23T08:20:59;9.00;59.40
13569;DHT22;6856;51.460;7.158;2024-02-23T08:23:39;9.10;59.60
13569;DHT22;6856;51.460;7.158;2024-02-23T08:26:16;9.10;59.70
13569;DHT22;6856;51.460;7.158;2024-02-23T08:28:55;9.10;58.90
13569;DHT22;6856;51.460;7.158;2024-02-23T08:31:33;9.10;59.70
13569;DHT22;6856;51.460;7.158;2024-02-23T08:34:13;9.20;59.60
13569;DHT22;6856;51.460;7.158;2024-02-23T08:36:47;9.20;59.60
13569;DHT22;6856;51.460;7.158;2024-02-23T08:39:21;9.20;59.30
13569;DHT22;6856;51.460;7.158;2024-02-23T08:41:57;9.20;59.50
13569;DHT22;6856;51.460;7.158;2024-02-23T08:44:31;9.30;59.30
13569;DHT22;6856;51.460;7.158;2024-02-23T08:47:05;9.60;59.30
13569;DHT22;6856;51.460;7.158;2024-02-23T08:49:40;9.30;59.20
13569;DHT22;6856;51.460;7.158;2024-02-23T08:52:15;9.30;59.30
13569;DHT22;6856;51.460;7.158;2024-02-23T08:54:51;9.30;59.40
13569;DHT22;6856;51.460;7.158;2024-02-23T08:57:27;9.40;59.40
13569;DHT22;6856;51.460;7.158;2024-02-23T09:00:02;9.50;59.30
13569;DHT22;6856;51.460;7.158;2024-02-23T09:02:37;9.50;59.20
13569;DHT22;6856;51.460;7.158;2024-02-23T09:05:11;9.90;59.10
13569;DHT22;6856;51.460;7.158;2024-02-23T09:07:46;9.60;59.00
13569;DHT22;6856;51.460;7.158;2024-02-23T09:10:20;9.60;59.00
13569;DHT22;6856;51.460;7.158;2024-02-23T09:12:55;9.80;58.80
13569;DHT22;6856;51.460;7.158;2024-02-23T09:15:30;9.70;58.80
13569;DHT22;6856;51.460;7.158;2024-02-23T09:18:05;9.60;58.80
13569;DHT22;6856;51.460;7.158;2024-02-23T09:20:39;9.60;58.30
13569;DHT22;6856;51.460;7.158;2024-02-23T09:23:13;9.60;58.60
13569;DHT22;6856;51.460;7.158;2024-02-23T09:25:46;9.60;58.60
13569;DHT22;6856;51.460;7.158;2024-02-23T09:28:22;9.70;58.60
13569;DHT22;6856;51.460;7.158;2024-02-23T09:30:56;9.90;58.70
13569;DHT22;6856;51.460;7.158;2024-02-23T09:33:30;9.70;58.60
13569;DHT22;6856;51.460;7.158;2024-02-23T09:36:05;9.70;58.60
13569;DHT22;6856;51.460;7.158;2024-02-23T09:38:41;9.70;58.70
13569;DHT22;6856;51.460;7.158;2024-02-23T09:41:21;9.90;58.70
13569;DHT22;6856;51.460;7.158;2024-02-23T09:43:58;9.80;58.60
13569;DHT22;6856;51.460;7.158;2024-02-23T09:46:34;9.80;58.60
13569;DHT22;6856;51.460;7.158;2024-02-23T09:49:09;10.10;58.80
13569;DHT22;6856;51.460;7.158;2024-02-23T09:51:45;9.80;58.80
13569;DHT22;6856;51.460;7.158;2024-02-23T09:54:19;9.90;58.60
13569;DHT22;6856;51.460;7.158;2024-02-23T09:56:54;9.90;58.40
13569;DHT22;6856;51.460;7.158;2024-02-23T09:59:33;10.00;58.40
13569;DHT22;6856;51.460;7.158;2024-02-23T10:02:08;10.00;58.30
13569;DHT22;6856;51.460;7.158;2024-02-23T10:04:45;10.00;58.20
13569;DHT22;6856;51.460;7.158;2024-02-23T10:07:23;10.00;58.00
13569;DHT22;6856;51.460;7.158;2024-02-23T10:09:58;10.10;58.00
13569;DHT22;6856;51.460;7.158;2024-02-23T10:12:33;10.10;57.80
13569;DHT22;6856;51.460;7.158;2024-02-23T10:15:10;10.10;57.70
13569;DHT22;6856;51.460;7.158;2024-02-23T10:17:44;10.20;57.60
13569;DHT22;6856;51.460;7.158;2024-02-23T10:20:18;10.30;57.70
13569;DHT22;6856;51.460;7.158;2024-02-23T10:22:52;10.20;57.40
13569;DHT22;6856;51.460;7.158;2024-02-23T10:25:28;10.30;57.60
13569;DHT22;6856;51.460;7.158;2024-02-23T10:28:02;10.30;57.40
13569;DHT22;6856;51.460;7.158;2024-02-23T10:30:40;10.30;57.40
13569;DHT22;6856;51.460;7.158;2024-02-23T10:33:14;10.40;57.30
13569;DHT22;6856;51.460;7.158;2024-02-23T10:35:49;10.40;57.30
13569;DHT22;6856;51.460;7.158;2024-02-23T10:38:32;10.40;57.90
13569;DHT22;6856;51.460;7.158;2024-02-23T10:41:06;10.40;57.30
13569;DHT22;6856;51.460;7.158;2024-02-23T10:43:45;10.70;57.30
13569;DHT22;6856;51.460;7.158;2024-02-23T10:46:21;10.50;57.20
13569;DHT22;6856;51.460;7.158;2024-02-23T10:48:56;10.50;57.10
13569;DHT22;6856;51.460;7.158;2024-02-23T10:51:33;10.50;57.20
13569;DHT22;6856;51.460;7.158;2024-02-23T10:54:11;10.60;57.20
13569;DHT22;6856;51.460;7.158;2024-02-23T10:56:47;10.60;56.90
13569;DHT22;6856;51.460;7.158;2024-02-23T10:59:23;10.60;57.00
13569;DHT22;6856;51.460;7.158;2024-02-23T11:01:59;10.60;57.10
13569;DHT22;6856;51.460;7.158;2024-02-23T11:04:34;10.70;56.90
13569;DHT22;6856;51.460;7.158;2024-02-23T11:07:13;10.70;57.00
13569;DHT22;6856;51.460;7.158;2024-02-23T11:09:49;10.80;56.90
13569;DHT22;6856;51.460;7.158;2024-02-23T11:12:29;10.80;57.40
13569;DHT22;6856;51.460;7.158;2024-02-23T11:15:04;10.80;57.00
13569;DHT22;6856;51.460;7.158;2024-02-23T11:17:40;10.90;56.90
13569;DHT22;6856;51.460;7.158;2024-02-23T11:20:14;11.00;56.80
13569;DHT22;6856;51.460;7.158;2024-02-23T11:23:01;11.00;56.50
13569;DHT22;6856;51.460;7.158;2024-02-23T11:25:59;11.00;56.30
13569;DHT22;6856;51.460;7.158;2024-02-23T11:28:46;11.10;56.00
13569;DHT22;6856;51.460;7.158;2024-02-23T11:31:22;11.10;55.70
13569;DHT22;6856;51.460;7.158;2024-02-23T11:33:59;11.10;55.90
13569;DHT22;6856;51.460;7.158;2024-02-23T11:36:34;11.10;55.80
13569;DHT22;6856;51.460;7.158;2024-02-23T11:39:10;11.00;56.50
13569;DHT22;6856;51.460;7.158;2024-02-23T11:41:45;11.40;56.20
13569;DHT22;6856;51.460;7.158;2024-02-23T11:44:22;11.00;56.10
13569;DHT22;6856;51.460;7.158;2024-02-23T11:46:55;11.00;56.00
13569;DHT22;6856;51.460;7.158;2024-02-23T11:49:33;11.00;56.10
13569;DHT22;6856;51.460;7.158;2024-02-23T11:52:07;11.00;56.00
13569;DHT22;6856;51.460;7.158;2024-02-23T11:54:42;11.10;56.00
13569;DHT22;6856;51.460;7.158;2024-02-23T11:57:18;11.10;56.10
13569;DHT22;6856;51.460;7.158;2024-02-23T11:59:54;11.10;56.10
13569;DHT22;6856;51.460;7.158;2024-02-23T12:02:28;11.10;56.10
13569;DHT22;6856;51.460;7.158;2024-02-23T12:05:04;11.10;56.70
13569;DHT22;6856;51.460;7.158;2024-02-23T12:07:43;11.10;56.10
13569;DHT22;6856;51.460;7.158;2024-02-23T12:10:19;11.10;56.00
13569;DHT22;6856;51.460;7.158;2024-02-23T12:12:53;11.10;56.00
13569;DHT22;6856;51.460;7.158;2024-02-23T12:15:28;11.10;56.00
13569;DHT22;6856;51.460;7.158;2024-02-23T12:18:04;11.30;56.00
13569;DHT22;6856;51.460;7.158;2024-02-23T12:20:42;11.10;55.90
13569;DHT22;6856;51.460;7.158;2024-02-23T12:23:19;11.10;55.70
13569;DHT22;6856;51.460;7.158;2024-02-23T12:25:54;11.10;55.90
13569;DHT22;6856;51.460;7.158;2024-02-23T12:28:31;11.10;55.80
13569;DHT22;6856;51.460;7.158;2024-02-23T12:31:06;11.40;56.00
13569;DHT22;6856;51.460;7.158;2024-02-23T12:33:41;11.10;55.80
13569;DHT22;6856;51.460;7.158;2024-02-23T12:36:23;11.10;55.90
13569;DHT22;6856;51.460;7.158;2024-02-23T12:38:57;11.10;55.80
13569;DHT22;6856;51.460;7.158;2024-02-23T12:41:30;11.10;55.80
13569;DHT22;6856;51.460;7.158;2024-02-23T12:44:04;11.10;55.90
13569;DHT22;6856;51.460;7.158;2024-02-23T12:46:40;11.20;55.90
13569;DHT22;6856;51.460;7.158;2024-02-23T12:49:13;11.10;56.10
13569;DHT22;6856;51.460;7.158;2024-02-23T12:51:51;11.30;56.20
13569;DHT22;6856;51.460;7.158;2024-02-23T12:54:24;11.10;56.20
13569;DHT22;6856;51.460;7.158;2024-02-23T12:56:58;11.20;56.10
13569;DHT22;6856;51.460;7.158;2024-02-23T12:59:32;11.20;56.10
13569;DHT22;6856;51.460;7.158;2024-02-23T13:02:08;11.20;56.20
13569;DHT22;6856;51.460;7.158;2024-02-23T13:04:45;11.30;56.10
13569;DHT22;6856;51.460;7.158;2024-02-23T13:07:25;11.30;56.10
13569;DHT22;6856;51.460;7.158;2024-02-23T13:10:02;11.30;56.00
13569;DHT22;6856;51.460;7.158;2024-02-23T13:12:39;11.30;56.00
13569;DHT22;6856;51.460;7.158;2024-02-23T13:15:12;11.30;55.90
13569;DHT22;6856;51.460;7.158;2024-02-23T13:17:52;11.40;55.80
13569;DHT22;6856;51.460;7.158;2024-02-23T13:20:26;11.40;55.90
13569;DHT22;6856;51.460;7.158;2024-02-23T13:23:02;11.40;56.10
13569;DHT22;6856;51.460;7.158;2024-02-23T13:25:36;11.40;56.50
13569;DHT22;6856;51.460;7.158;2024-02-23T13:28:11;11.40;56.60
13569;DHT22;6856;51.460;7.158;2024-02-23T13:30:46;11.40;56.70
13569;DHT22;6856;51.460;7.158;2024-02-23T13:33:20;11.30;56.50
13569;DHT22;6856;51.460;7.158;2024-02-23T13:35:56;11.30;56.30
13569;DHT22;6856;51.460;7.158;2024-02-23T13:38:31;11.30;56.40
13569;DHT22;6856;51.460;7.158;2024-02-23T13:41:11;11.30;56.60
13569;DHT22;6856;51.460;7.158;2024-02-23T13:43:45;11.30;56.80
13569;DHT22;6856;51.460;7.158;2024-02-23T13:46:19;11.30;57.00
13569;DHT22;6856;51.460;7.158;2024-02-23T13:49:03;11.30;57.00
13569;DHT22;6856;51.460;7.158;2024-02-23T13:51:39;11.20;57.00
13569;DHT22;6856;51.460;7.158;2024-02-23T13:54:16;11.20;57.00
13569;DHT22;6856;51.460;7.158;2024-02-23T13:56:50;11.50;57.20
13569;DHT22;6856;51.460;7.158;2024-02-23T13:59:24;11.20;57.00
13569;DHT22;6856;51.460;7.158;2024-02-23T14:01:58;11.20;57.00
13569;DHT22;6856;51.460;7.158;2024-02-23T14:04:32;11.50;57.10
13569;DHT22;6856;51.460;7.158;2024-02-23T14:07:06;11.20;56.80
13569;DHT22;6856;51.460;7.158;2024-02-23T14:09:42;11.20;56.80
13569;DHT22;6856;51.460;7.158;2024-02-23T14:12:15;11.30;56.70
13569;DHT22;6856;51.460;7.158;2024-02-23T14:14:51;11.20;56.50
13569;DHT22;6856;51.460;7.158;2024-02-23T14:17:26;11.50;56.60
13569;DHT22;6856;51.460;7.158;2024-02-23T14:20:01;11.30;56.30
13569;DHT22;6856;51.460;7.158;2024-02-23T14:22:36;11.30;56.40
13569;DHT22;6856;51.460;7.158;2024-02-23T14:25:11;11.40;56.30
13569;DHT22;6856;51.460;7.158;2024-02-23T14:27:45;11.40;56.30
13569;DHT22;6856;51.460;7.158;2024-02-23T14:30:20;11.40;56.10
13569;DHT22;6856;51.460;7.158;2024-02-23T14:32:55;11.50;56.20
13569;DHT22;6856;51.460;7.158;2024-02-23T14:35:31;11.50;56.20
13569;DHT22;6856;51.460;7.158;2024-02-23T14:38:05;11.60;55.90
13569;DHT22;6856;51.460;7.158;2024-02-23T14:40:40;11.60;56.00
13569;DHT22;6856;51.460;7.158;2024-02-23T14:43:14;11.70;55.70
13569;DHT22;6856;51.460;7.158;2024-02-23T14:45:50;11.70;55.60
13569;DHT22;6856;51.460;7.158;2024-02-23T14:48:26;11.70;55.40
13569;DHT22;6856;51.460;7.158;2024-02-23T14:51:01;11.80;55.50
13569;DHT22;6856;51.460;7.158;2024-02-23T14:53:38;11.80;55.40
13569;DHT22;6856;51.460;7.158;2024-02-23T14:56:13;11.80;55.20
13569;DHT22;6856;51.460;7.158;2024-02-23T14:58:47;12.10;55.10
13569;DHT22;6856;51.460;7.158;2024-02-23T15:01:21;11.80;55.00
13569;DHT22;6856;51.460;7.158;2024-02-23T15:03:55;11.80;54.30
13569;DHT22;6856;51.460;7.158;2024-02-23T15:06:29;11.80;55.10
13569;DHT22;6856;51.460;7.158;2024-02-23T15:09:03;11.80;55.10
13569;DHT22;6856;51.460;7.158;2024-02-23T15:11:40;11.90;55.00
13569;DHT22;6856;51.460;7.158;2024-02-23T15:14:14;11.80;54.80
13569;DHT22;6856;51.460;7.158;2024-02-23T15:16:48;11.90;55.00
13569;DHT22;6856;51.460;7.158;2024-02-23T15:19:22;11.90;55.10
13569;DHT22;6856;51.460;7.158;2024-02-23T15:21:58;11.90;55.10
13569;DHT22;6856;51.460;7.158;2024-02-23T15:24:32;11.90;55.20
13569;DHT22;6856;51.460;7.158;2024-02-23T15:27:07;11.90;55.20
13569;DHT22;6856;51.460;7.158;2024-02-23T15:29:41;11.90;55.30
13569;DHT22;6856;51.460;7.158;2024-02-23T15:32:16;12.10;55.80
13569;DHT22;6856;51.460;7.158;2024-02-23T15:34:50;11.80;56.00
13569;DHT22;6856;51.460;7.158;2024-02-23T15:37:24;11.80;56.20
13569;DHT22;6856;51.460;7.158;2024-02-23T15:39:58;11.80;56.30
13569;DHT22;6856;51.460;7.158;2024-02-23T15:42:34;11.80;56.50
13569;DHT22;6856;51.460;7.158;2024-02-23T15:45:10;11.90;56.60
13569;DHT22;6856;51.460;7.158;2024-02-23T15:47:44;11.80;56.50
13569;DHT22;6856;51.460;7.158;2024-02-23T15:50:18;11.70;56.40
13569;DHT22;6856;51.460;7.158;2024-02-23T15:53:14;11.70;56.60
13569;DHT22;6856;51.460;7.158;2024-02-23T15:55:48;11.70;56.80
13569;DHT22;6856;51.460;7.158;2024-02-23T15:58:25;11.70;57.10
13569;DHT22;6856;51.460;7.158;2024-02-23T16:01:00;11.70;57.10
13569;DHT22;6856;51.460;7.158;2024-02-23T16:03:34;11.70;57.20
13569;DHT22;6856;51.460;7.158;2024-02-23T16:06:07;11.80;57.40
13569;DHT22;6856;51.460;7.158;2024-02-23T16:08:43;11.60;57.30
13569;DHT22;6856;51.460;7.158;2024-02-23T16:11:17;11.40;57.50
13569;DHT22;6856;51.460;7.158;2024-02-23T16:13:53;11.50;57.70
13569;DHT22;6856;51.460;7.158;2024-02-23T16:16:27;11.30;57.80
13569;DHT22;6856;51.460;7.158;2024-02-23T16:19:01;11.30;58.00
13569;DHT22;6856;51.460;7.158;2024-02-23T16:21:35;11.30;58.10
13569;DHT22;6856;51.460;7.158;2024-02-23T16:24:11;11.20;58.30
13569;DHT22;6856;51.460;7.158;2024-02-23T16:26:46;11.20;58.30
13569;DHT22;6856;51.460;7.158;2024-02-23T16:29:22;11.20;58.30
13569;DHT22;6856;51.460;7.158;2024-02-23T16:31:57;11.20;58.30
13569;DHT22;6856;51.460;7.158;2024-02-23T16:34:31;11.20;58.40
13569;DHT22;6856;51.460;7.158;2024-02-23T16:37:06;11.30;58.60
13569;DHT22;6856;51.460;7.158;2024-02-23T16:39:39;11.20;58.60
13569;DHT22;6856;51.460;7.158;2024-02-23T16:42:14;11.10;58.50
13569;DHT22;6856;51.460;7.158;2024-02-23T16:44:50;11.10;58.50